SHT22K EGLL-EGJB
Flight info
| Callsign | SHT22K |
|---|---|
| Flight time | 0h 35m |
| Altitude | 23000 |
| Route | GASGU N866 SAM/N0389F220 N63 LELNA |
| Aircraft | A319/M-SDE3FGHIRWY/LB1 |
Departure
| Time | 2026-04-20 16:06 |
|---|---|
| Airport | London Heathrow Airport (EGLL) |
Arrival
| Time | 2026-04-20 16:41 |
|---|---|
| Airport | Guernsey Airport (EGJB) |
| Time | Latitude | Longitude | Altitude | Speed | Heading |
|---|---|---|---|---|---|
| 2026-04-20 15:24 | 51.47360 | -0.48592 | 87 ft | 0 kts | 270° |
| 2026-04-20 15:56 | 51.47360 | -0.48558 | 87 ft | 4 kts | 270° |
| 2026-04-20 15:57 | 51.47360 | -0.48524 | 87 ft | 4 kts | 264° |
| 2026-04-20 15:57 | 51.47367 | -0.48487 | 90 ft | 4 kts | 218° |
| 2026-04-20 15:57 | 51.47387 | -0.48477 | 88 ft | 2 kts | 180° |
| 2026-04-20 15:57 | 51.47388 | -0.48477 | 88 ft | 0 kts | 180° |
| 2026-04-20 16:01 | 51.47376 | -0.48477 | 90 ft | 4 kts | 180° |
| 2026-04-20 16:01 | 51.47334 | -0.48477 | 87 ft | 10 kts | 180° |
| 2026-04-20 16:01 | 51.47234 | -0.48477 | 87 ft | 17 kts | 181° |
| 2026-04-20 16:01 | 51.47119 | -0.48475 | 87 ft | 16 kts | 180° |
| 2026-04-20 16:02 | 51.47016 | -0.48473 | 87 ft | 16 kts | 180° |
| 2026-04-20 16:02 | 51.46899 | -0.48473 | 87 ft | 15 kts | 179° |
| 2026-04-20 16:02 | 51.46806 | -0.48472 | 87 ft | 12 kts | 180° |
| 2026-04-20 16:02 | 51.46714 | -0.48470 | 87 ft | 14 kts | 180° |
| 2026-04-20 16:03 | 51.46636 | -0.48470 | 87 ft | 6 kts | 179° |
| 2026-04-20 16:03 | 51.46606 | -0.48470 | 88 ft | 5 kts | 180° |
| 2026-04-20 16:03 | 51.46593 | -0.48470 | 88 ft | 0 kts | 180° |
| 2026-04-20 16:04 | 51.46590 | -0.48470 | 88 ft | 3 kts | 180° |
| 2026-04-20 16:04 | 51.46586 | -0.48470 | 88 ft | 0 kts | 180° |
| 2026-04-20 16:04 | 51.46585 | -0.48470 | 88 ft | 0 kts | 180° |
| 2026-04-20 16:05 | 51.46564 | -0.48470 | 88 ft | 5 kts | 179° |
| 2026-04-20 16:05 | 51.46525 | -0.48469 | 89 ft | 6 kts | 180° |
| 2026-04-20 16:05 | 51.46482 | -0.48448 | 90 ft | 8 kts | 128° |
| 2026-04-20 16:05 | 51.46478 | -0.48335 | 89 ft | 20 kts | 89° |
| 2026-04-20 16:06 | 51.46479 | -0.47790 | 87 ft | 80 kts | 89° |
| 2026-04-20 16:06 | 51.46485 | -0.46609 | 91 ft | 133 kts | 90° |
| 2026-04-20 16:06 | 51.46480 | -0.44969 | 488 ft | 148 kts | 88° |
| 2026-04-20 16:06 | 51.46480 | -0.43331 | 1228 ft | 147 kts | 87° |
| 2026-04-20 16:07 | 51.46380 | -0.41647 | 1856 ft | 160 kts | 101° |
| 2026-04-20 16:07 | 51.45842 | -0.39970 | 2413 ft | 178 kts | 122° |
| 2026-04-20 16:07 | 51.45073 | -0.38302 | 2988 ft | 197 kts | 123° |
| 2026-04-20 16:07 | 51.44201 | -0.36422 | 3524 ft | 223 kts | 122° |
| 2026-04-20 16:08 | 51.43142 | -0.34454 | 4227 ft | 244 kts | 137° |
| 2026-04-20 16:08 | 51.41614 | -0.33043 | 5052 ft | 266 kts | 158° |
| 2026-04-20 16:08 | 51.39751 | -0.32640 | 5959 ft | 276 kts | 184° |
| 2026-04-20 16:08 | 51.37922 | -0.33492 | 6957 ft | 282 kts | 207° |
| 2026-04-20 16:09 | 51.36364 | -0.35371 | 8033 ft | 279 kts | 225° |
| 2026-04-20 16:09 | 51.35014 | -0.37554 | 9292 ft | 274 kts | 227° |
| 2026-04-20 16:09 | 51.33688 | -0.39744 | 10376 ft | 275 kts | 227° |
| 2026-04-20 16:09 | 51.32303 | -0.41936 | 11130 ft | 286 kts | 227° |
| 2026-04-20 16:10 | 51.30987 | -0.44419 | 11629 ft | 303 kts | 239° |
| 2026-04-20 16:10 | 51.30002 | -0.47521 | 11960 ft | 323 kts | 251° |
| 2026-04-20 16:10 | 51.29311 | -0.50967 | 12848 ft | 321 kts | 255° |
| 2026-04-20 16:10 | 51.28708 | -0.54288 | 14322 ft | 305 kts | 257° |
| 2026-04-20 16:11 | 51.28141 | -0.57530 | 15074 ft | 312 kts | 257° |
| 2026-04-20 16:11 | 51.27523 | -0.60982 | 15321 ft | 333 kts | 257° |
| 2026-04-20 16:11 | 51.26850 | -0.64570 | 15895 ft | 341 kts | 256° |
| 2026-04-20 16:11 | 51.26142 | -0.68212 | 16611 ft | 345 kts | 256° |
| 2026-04-20 16:12 | 51.25419 | -0.71885 | 17362 ft | 348 kts | 257° |
| 2026-04-20 16:12 | 51.24689 | -0.75577 | 18127 ft | 350 kts | 257° |
| 2026-04-20 16:12 | 51.23956 | -0.79296 | 18846 ft | 353 kts | 257° |
| 2026-04-20 16:12 | 51.23218 | -0.83045 | 19535 ft | 354 kts | 258° |
| 2026-04-20 16:13 | 51.22479 | -0.86797 | 20275 ft | 355 kts | 258° |
| 2026-04-20 16:13 | 51.21737 | -0.90557 | 21019 ft | 355 kts | 258° |
| 2026-04-20 16:13 | 51.20847 | -0.94204 | 21717 ft | 362 kts | 250° |
| 2026-04-20 16:13 | 51.19477 | -0.97624 | 22400 ft | 372 kts | 238° |
| 2026-04-20 16:14 | 51.17676 | -1.00655 | 23033 ft | 379 kts | 232° |
| 2026-04-20 16:14 | 51.15779 | -1.03574 | 23215 ft | 378 kts | 232° |
| 2026-04-20 16:14 | 51.13901 | -1.06441 | 23243 ft | 372 kts | 232° |
| 2026-04-20 16:14 | 51.12039 | -1.09280 | 23250 ft | 370 kts | 232° |
| 2026-04-20 16:15 | 51.10182 | -1.12117 | 23246 ft | 369 kts | 232° |
| 2026-04-20 16:15 | 51.08334 | -1.14948 | 23244 ft | 369 kts | 232° |
| 2026-04-20 16:15 | 51.06486 | -1.17780 | 23249 ft | 369 kts | 232° |
| 2026-04-20 16:15 | 51.04664 | -1.20574 | 23249 ft | 369 kts | 232° |
| 2026-04-20 16:16 | 51.02815 | -1.23407 | 23250 ft | 369 kts | 232° |
| 2026-04-20 16:16 | 51.00962 | -1.26234 | 23246 ft | 369 kts | 232° |
| 2026-04-20 16:16 | 50.99108 | -1.29055 | 23245 ft | 369 kts | 232° |
| 2026-04-20 16:16 | 50.97251 | -1.31874 | 23241 ft | 369 kts | 232° |
| 2026-04-20 16:17 | 50.95262 | -1.34500 | 23248 ft | 378 kts | 223° |
| 2026-04-20 16:17 | 50.92950 | -1.36591 | 23249 ft | 386 kts | 215° |
| 2026-04-20 16:17 | 50.90555 | -1.38504 | 23248 ft | 386 kts | 215° |
| 2026-04-20 16:17 | 50.88158 | -1.40412 | 23248 ft | 386 kts | 215° |
| 2026-04-20 16:18 | 50.85790 | -1.42295 | 23208 ft | 385 kts | 214° |
| 2026-04-20 16:18 | 50.83396 | -1.44195 | 23215 ft | 385 kts | 214° |
| 2026-04-20 16:18 | 50.81004 | -1.46096 | 23222 ft | 385 kts | 214° |
| 2026-04-20 16:18 | 50.78613 | -1.47997 | 23236 ft | 384 kts | 214° |
| 2026-04-20 16:19 | 50.76225 | -1.49889 | 23238 ft | 384 kts | 214° |
| 2026-04-20 16:19 | 50.73835 | -1.51783 | 23239 ft | 384 kts | 214° |
| 2026-04-20 16:19 | 50.71449 | -1.53674 | 23238 ft | 384 kts | 214° |
| 2026-04-20 16:19 | 50.69062 | -1.55563 | 23238 ft | 384 kts | 214° |
| 2026-04-20 16:20 | 50.66678 | -1.57450 | 23236 ft | 384 kts | 214° |
| 2026-04-20 16:20 | 50.64288 | -1.59340 | 23235 ft | 384 kts | 214° |
| 2026-04-20 16:20 | 50.61934 | -1.61196 | 23204 ft | 384 kts | 214° |
| 2026-04-20 16:20 | 50.59546 | -1.63078 | 23210 ft | 384 kts | 214° |
| 2026-04-20 16:21 | 50.57161 | -1.64956 | 23218 ft | 384 kts | 214° |
| 2026-04-20 16:21 | 50.54773 | -1.66832 | 23220 ft | 384 kts | 214° |
| 2026-04-20 16:21 | 50.52381 | -1.68710 | 23226 ft | 384 kts | 214° |
| 2026-04-20 16:21 | 50.49992 | -1.70584 | 23228 ft | 384 kts | 214° |
| 2026-04-20 16:22 | 50.47603 | -1.72455 | 23225 ft | 384 kts | 214° |
| 2026-04-20 16:22 | 50.45214 | -1.74325 | 23227 ft | 384 kts | 214° |
| 2026-04-20 16:22 | 50.42821 | -1.76195 | 23232 ft | 384 kts | 213° |
| 2026-04-20 16:22 | 50.40457 | -1.78037 | 23207 ft | 384 kts | 214° |
| 2026-04-20 16:23 | 50.38064 | -1.79900 | 23206 ft | 384 kts | 214° |
| 2026-04-20 16:23 | 50.35668 | -1.81765 | 23215 ft | 384 kts | 214° |
| 2026-04-20 16:23 | 50.33273 | -1.83631 | 23220 ft | 384 kts | 214° |
| 2026-04-20 16:23 | 50.30881 | -1.85496 | 23217 ft | 384 kts | 214° |
| 2026-04-20 16:24 | 50.28485 | -1.87361 | 23229 ft | 384 kts | 214° |
| 2026-04-20 16:24 | 50.26092 | -1.89219 | 23235 ft | 384 kts | 214° |
| 2026-04-20 16:24 | 50.23697 | -1.91073 | 23238 ft | 384 kts | 213° |
| 2026-04-20 16:24 | 50.21307 | -1.92919 | 23112 ft | 383 kts | 213° |
| 2026-04-20 16:25 | 50.18917 | -1.94763 | 22521 ft | 383 kts | 213° |
| 2026-04-20 16:25 | 50.16572 | -1.96567 | 22068 ft | 378 kts | 212° |
| 2026-04-20 16:25 | 50.14230 | -1.98367 | 21629 ft | 373 kts | 212° |
| 2026-04-20 16:25 | 50.11919 | -2.00143 | 21156 ft | 369 kts | 212° |
| 2026-04-20 16:26 | 50.09632 | -2.01900 | 20698 ft | 364 kts | 212° |
| 2026-04-20 16:26 | 50.07373 | -2.03637 | 20221 ft | 360 kts | 212° |
| 2026-04-20 16:26 | 50.05134 | -2.05360 | 19756 ft | 357 kts | 211° |
| 2026-04-20 16:26 | 50.02917 | -2.07064 | 19277 ft | 355 kts | 211° |
| 2026-04-20 16:27 | 50.00711 | -2.08755 | 18793 ft | 352 kts | 211° |
| 2026-04-20 16:27 | 49.98619 | -2.10673 | 18279 ft | 346 kts | 221° |
| 2026-04-20 16:27 | 49.96841 | -2.13120 | 17786 ft | 338 kts | 231° |
| 2026-04-20 16:27 | 49.95318 | -2.15792 | 17322 ft | 333 kts | 232° |
| 2026-04-20 16:28 | 49.93789 | -2.18471 | 16853 ft | 330 kts | 232° |
| 2026-04-20 16:28 | 49.92273 | -2.21117 | 16405 ft | 327 kts | 232° |
| 2026-04-20 16:28 | 49.90768 | -2.23742 | 15942 ft | 325 kts | 232° |
| 2026-04-20 16:28 | 49.89270 | -2.26347 | 15494 ft | 322 kts | 231° |
| 2026-04-20 16:29 | 49.87782 | -2.28933 | 15045 ft | 320 kts | 232° |
| 2026-04-20 16:29 | 49.86303 | -2.31505 | 14598 ft | 319 kts | 231° |
| 2026-04-20 16:29 | 49.84834 | -2.34058 | 14151 ft | 317 kts | 232° |
| 2026-04-20 16:29 | 49.83365 | -2.36611 | 13670 ft | 316 kts | 230° |
| 2026-04-20 16:30 | 49.81927 | -2.39107 | 13227 ft | 313 kts | 230° |
| 2026-04-20 16:30 | 49.80482 | -2.41616 | 12786 ft | 311 kts | 232° |
| 2026-04-20 16:30 | 49.79048 | -2.44105 | 12349 ft | 309 kts | 231° |
| 2026-04-20 16:30 | 49.77622 | -2.46580 | 11913 ft | 307 kts | 230° |
| 2026-04-20 16:31 | 49.76205 | -2.49033 | 11487 ft | 305 kts | 229° |
| 2026-04-20 16:31 | 49.74793 | -2.51471 | 11060 ft | 304 kts | 229° |
| 2026-04-20 16:31 | 49.73383 | -2.53902 | 10637 ft | 303 kts | 229° |
| 2026-04-20 16:31 | 49.72001 | -2.56282 | 10448 ft | 293 kts | 229° |
| 2026-04-20 16:32 | 49.70652 | -2.58606 | 10207 ft | 289 kts | 228° |
| 2026-04-20 16:32 | 49.69221 | -2.60705 | 10058 ft | 287 kts | 222° |
| 2026-04-20 16:32 | 49.67735 | -2.62761 | 9906 ft | 287 kts | 223° |
| 2026-04-20 16:32 | 49.66244 | -2.64832 | 9456 ft | 290 kts | 223° |
| 2026-04-20 16:33 | 49.64743 | -2.66913 | 9047 ft | 289 kts | 222° |
| 2026-04-20 16:33 | 49.63242 | -2.68989 | 8576 ft | 290 kts | 222° |
| 2026-04-20 16:33 | 49.61759 | -2.71038 | 8155 ft | 285 kts | 221° |
| 2026-04-20 16:33 | 49.60290 | -2.73073 | 7649 ft | 284 kts | 221° |
| 2026-04-20 16:34 | 49.58820 | -2.75109 | 7154 ft | 283 kts | 221° |
| 2026-04-20 16:34 | 49.57360 | -2.77128 | 6664 ft | 281 kts | 221° |
| 2026-04-20 16:34 | 49.55926 | -2.79107 | 6244 ft | 278 kts | 221° |
| 2026-04-20 16:34 | 49.54517 | -2.81045 | 6029 ft | 267 kts | 220° |
| 2026-04-20 16:35 | 49.53138 | -2.82940 | 5672 ft | 264 kts | 220° |
| 2026-04-20 16:35 | 49.51803 | -2.84779 | 5536 ft | 251 kts | 219° |
| 2026-04-20 16:35 | 49.50521 | -2.86545 | 5283 ft | 244 kts | 220° |
| 2026-04-20 16:35 | 49.49242 | -2.88305 | 4687 ft | 252 kts | 220° |
| 2026-04-20 16:36 | 49.47909 | -2.90135 | 3974 ft | 263 kts | 218° |
| 2026-04-20 16:36 | 49.46499 | -2.91922 | 3611 ft | 255 kts | 206° |
| 2026-04-20 16:36 | 49.44910 | -2.92480 | 3438 ft | 228 kts | 166° |
| 2026-04-20 16:36 | 49.43584 | -2.91493 | 3260 ft | 205 kts | 134° |
| 2026-04-20 16:37 | 49.42740 | -2.89812 | 3173 ft | 199 kts | 107° |
| 2026-04-20 16:37 | 49.42648 | -2.87747 | 3097 ft | 197 kts | 81° |
| 2026-04-20 16:37 | 49.42768 | -2.85663 | 3022 ft | 196 kts | 86° |
| 2026-04-20 16:37 | 49.42826 | -2.83577 | 2956 ft | 194 kts | 86° |
| 2026-04-20 16:38 | 49.42884 | -2.81516 | 2878 ft | 191 kts | 86° |
| 2026-04-20 16:38 | 49.42942 | -2.79516 | 2670 ft | 184 kts | 86° |
| 2026-04-20 16:38 | 49.42998 | -2.77602 | 2441 ft | 180 kts | 86° |
| 2026-04-20 16:38 | 49.43054 | -2.75707 | 2200 ft | 175 kts | 86° |
| 2026-04-20 16:39 | 49.43106 | -2.73895 | 1968 ft | 166 kts | 85° |
| 2026-04-20 16:39 | 49.43156 | -2.72162 | 1774 ft | 156 kts | 85° |
| 2026-04-20 16:39 | 49.43201 | -2.70558 | 1524 ft | 144 kts | 84° |
| 2026-04-20 16:39 | 49.43242 | -2.69122 | 1348 ft | 125 kts | 84° |
| 2026-04-20 16:40 | 49.43278 | -2.67839 | 1178 ft | 117 kts | 84° |
| 2026-04-20 16:40 | 49.43314 | -2.66582 | 1027 ft | 118 kts | 84° |
| 2026-04-20 16:40 | 49.43350 | -2.65352 | 849 ft | 117 kts | 83° |
| 2026-04-20 16:40 | 49.43385 | -2.64106 | 697 ft | 117 kts | 83° |
| 2026-04-20 16:41 | 49.43421 | -2.62858 | 528 ft | 119 kts | 85° |
| 2026-04-20 16:41 | 49.43456 | -2.61615 | 385 ft | 117 kts | 82° |
| 2026-04-20 16:41 | 49.43493 | -2.60442 | 315 ft | 91 kts | 87° |
| 2026-04-20 16:41 | 49.43505 | -2.59924 | 322 ft | 15 kts | 93° |
| 2026-04-20 16:42 | 49.43426 | -2.59860 | 324 ft | 11 kts | 177° |
| 2026-04-20 16:42 | 49.43372 | -2.59856 | 324 ft | 9 kts | 172° |
| 2026-04-20 16:42 | 49.43344 | -2.59819 | 324 ft | 4 kts | 95° |
| 2026-04-20 16:42 | 49.43349 | -2.59771 | 325 ft | 6 kts | 74° |
| 2026-04-20 16:43 | 49.43359 | -2.59709 | 324 ft | 4 kts | 74° |
| 2026-04-20 16:43 | 49.43359 | -2.59700 | 324 ft | 0 kts | 86° |
| 2026-04-20 16:44 | 49.43352 | -2.59696 | 326 ft | 4 kts | 150° |
| 2026-04-20 16:44 | 49.43305 | -2.59689 | 326 ft | 9 kts | 179° |
| 2026-04-20 16:44 | 49.43266 | -2.59686 | 326 ft | 2 kts | 178° |
| 2026-04-20 16:45 | 49.43254 | -2.59685 | 326 ft | 1 kts | 178° |
| 2026-04-20 16:45 | 49.43252 | -2.59685 | 326 ft | 0 kts | 178° |